Time;durP1;ratioP1;P1;durP2;ratioP2;P2;SDS_P1;SDS_P2;PMS_P1;PMS_P2;Temp;Humidity;BMP_temperature;BMP_pressure;BME280_temperature;BME280_humidity;BME280_pressure;Samples;Min_cycle;Max_cycle;Signal;HPM_P1;HPM_P2
2023/06/02 00:01:35;;;;;;;7.78;1.92;;;20.40;80.40;;;;;;5051660;28;20049;-67
2023/06/02 00:04:03;;;;;;;7.85;2.45;;;20.30;80.30;;;;;;5051946;28;20399;-66
2023/06/02 00:06:33;;;;;;;8.18;2.83;;;20.30;80.40;;;;;;5036307;28;20501;-64
2023/06/02 00:09:00;;;;;;;8.77;2.58;;;20.40;80.50;;;;;;5043844;28;20387;-68
2023/06/02 00:11:26;;;;;;;6.72;2.20;;;20.10;80.30;;;;;;5032779;28;20171;-71
2023/06/02 00:13:52;;;;;;;7.40;2.95;;;20.30;80.40;;;;;;5048705;28;20134;-69
2023/06/02 00:16:18;;;;;;;5.68;1.98;;;;;;;;;;5051692;28;20086;-68
2023/06/02 00:18:44;;;;;;;9.98;2.83;;;20.10;77.20;;;;;;5033807;28;20440;-71
2023/06/02 00:21:10;;;;;;;8.75;2.45;;;20.10;80.20;;;;;;5044449;28;20049;-68
2023/06/02 00:23:36;;;;;;;7.05;2.15;;;20.30;80.40;;;;;;5048458;28;20060;-67
2023/06/02 00:26:02;;;;;;;7.97;2.50;;;20.20;80.40;;;;;;5051872;28;20562;-62
2023/06/02 00:28:28;;;;;;;8.10;2.30;;;20.30;80.40;;;;;;5050902;28;20136;-69
2023/06/02 00:30:54;;;;;;;9.15;2.28;;;20.10;80.30;;;;;;5050283;28;20407;-70
2023/06/02 00:33:20;;;;;;;11.40;2.70;;;20.30;80.40;;;;;;5056007;28;20045;-64
2023/06/02 00:35:46;;;;;;;8.40;2.30;;;19.90;80.20;;;;;;5056217;28;20429;-69
2023/06/02 00:38:12;;;;;;;9.45;2.53;;;20.20;80.40;;;;;;5052996;28;20048;-65
2023/06/02 00:40:38;;;;;;;10.57;3.05;;;20.10;80.40;;;;;;5036832;28;20033;-68
2023/06/02 00:43:03;;;;;;;7.25;2.30;;;20.20;80.40;;;;;;5051268;28;20131;-69
2023/06/02 00:45:29;;;;;;;9.55;2.38;;;20.20;78.20;;;;;;5055556;28;20049;-64
2023/06/02 00:47:55;;;;;;;7.90;2.95;;;20.20;80.40;;;;;;5055753;28;20041;-62
2023/06/02 00:50:21;;;;;;;9.82;2.95;;;20.20;76.90;;;;;;5040803;28;20041;-64
2023/06/02 00:52:50;;;;;;;10.48;2.80;;;20.10;80.40;;;;;;5047136;28;20056;-60
2023/06/02 00:55:16;;;;;;;9.15;2.58;;;;;;;;;;5037663;28;20537;-64
2023/06/02 00:57:42;;;;;;;9.15;2.20;;;20.10;80.50;;;;;;5055442;28;20048;-68
2023/06/02 01:00:09;;;;;;;9.25;2.70;;;20.10;80.50;;;;;;5055733;28;20043;-69
2023/06/02 01:02:35;;;;;;;11.13;2.75;;;20.30;76.80;;;;;;5047642;28;20048;-71
2023/06/02 01:05:12;;;;;;;6.70;2.00;;;19.90;80.50;;;;;;5040687;28;20041;-68
2023/06/02 01:07:39;;;;;;;7.88;2.35;;;20.10;80.60;;;;;;5034298;28;20046;-65
2023/06/02 01:10:06;;;;;;;7.55;2.20;;;20.10;80.70;;;;;;5041787;28;20052;-66
2023/06/02 01:12:32;;;;;;;10.85;2.60;;;20.10;80.60;;;;;;5047359;28;20556;-67
2023/06/02 01:14:58;;;;;;;11.75;2.78;;;20.10;80.70;;;;;;5035147;28;20045;-61
2023/06/02 01:17:28;;;;;;;8.15;2.67;;;20.00;80.60;;;;;;5049867;28;20513;-71
2023/06/02 01:19:54;;;;;;;9.82;3.25;;;19.80;80.60;;;;;;5055103;28;20067;-65
2023/06/02 01:22:23;;;;;;;8.60;2.60;;;19.70;80.50;;;;;;5045501;28;20052;-60
2023/06/02 01:24:49;;;;;;;7.13;2.17;;;20.00;80.50;;;;;;5051843;28;20044;-60
2023/06/02 01:27:16;;;;;;;8.25;2.28;;;19.80;80.70;;;;;;5035368;28;20057;-65
2023/06/02 01:29:42;;;;;;;8.10;2.75;;;19.90;80.70;;;;;;5028032;28;20116;-61
2023/06/02 01:32:15;;;;;;;8.40;2.00;;;19.90;80.70;;;;;;5027786;28;20038;-64
2023/06/02 01:34:44;;;;;;;7.43;2.33;;;20.00;80.80;;;;;;5033363;28;20049;-71
2023/06/02 01:37:09;;;;;;;8.13;2.60;;;20.00;80.90;;;;;;5035167;28;20461;-67
2023/06/02 01:39:35;;;;;;;9.10;2.40;;;19.90;80.80;;;;;;5016885;28;20121;-70
2023/06/02 01:42:01;;;;;;;9.95;3.08;;;19.80;80.80;;;;;;5025982;28;20582;-71
2023/06/02 01:44:27;;;;;;;10.93;2.50;;;20.00;80.90;;;;;;4996498;28;20073;-62
2023/06/02 01:46:52;;;;;;;12.82;2.97;;;20.00;80.90;;;;;;5014442;28;20484;-71
2023/06/02 01:49:18;;;;;;;10.77;2.85;;;20.00;80.90;;;;;;5013645;28;20480;-66
2023/06/02 01:51:44;;;;;;;7.70;2.50;;;20.00;77.20;;;;;;5013972;28;20050;-67
2023/06/02 01:54:10;;;;;;;7.63;2.20;;;19.80;80.90;;;;;;5020478;28;20041;-68
2023/06/02 01:56:36;;;;;;;7.93;2.88;;;19.90;80.80;;;;;;5031719;28;20037;-64
2023/06/02 01:59:02;;;;;;;11.50;2.83;;;20.00;81.00;;;;;;5034375;28;20052;-67
2023/06/02 02:01:28;;;;;;;9.57;2.58;;;20.00;81.00;;;;;;5032158;28;20111;-64
2023/06/02 02:03:54;;;;;;;8.63;2.47;;;20.10;81.10;;;;;;5020122;28;20450;-62
2023/06/02 02:06:34;;;;;;;11.45;2.58;;;19.90;81.10;;;;;;5031807;28;20399;-59
2023/06/02 02:08:59;;;;;;;8.65;2.50;;;20.00;81.20;;;;;;5034253;28;20128;-68
2023/06/02 02:11:29;;;;;;;7.60;2.38;;;20.00;81.20;;;;;;5034415;28;20120;-63
2023/06/02 02:13:54;;;;;;;8.65;2.78;;;20.00;81.40;;;;;;5021036;28;20081;-63
2023/06/02 02:16:20;;;;;;;9.25;2.35;;;20.20;81.30;;;;;;5014736;28;20052;-61
2023/06/02 02:18:46;;;;;;;7.80;2.35;;;19.90;81.20;;;;;;5028584;28;20056;-62
2023/06/02 02:21:15;;;;;;;9.75;2.28;;;19.90;81.20;;;;;;5033614;28;20056;-60
2023/06/02 02:23:41;;;;;;;6.75;2.45;;;;;;;;;;5030253;28;20127;-65
2023/06/02 02:26:07;;;;;;;6.78;2.30;;;19.70;81.20;;;;;;5024698;28;20076;-62
2023/06/02 02:28:33;;;;;;;7.88;2.50;;;19.90;81.40;;;;;;5033914;28;20049;-67
2023/06/02 02:30:59;;;;;;;10.25;2.40;;;;;;;;;;5032508;28;20049;-70
2023/06/02 02:33:25;;;;;;;10.30;2.40;;;19.80;81.30;;;;;;5034209;28;20038;-66
2023/06/02 02:35:53;;;;;;;9.05;2.50;;;19.70;81.20;;;;;;5049717;28;20451;-65
2023/06/02 02:38:19;;;;;;;10.05;2.58;;;19.90;78.40;;;;;;5043621;28;20053;-70
2023/06/02 02:40:45;;;;;;;8.85;2.50;;;19.90;81.40;;;;;;5033613;28;20080;-61
2023/06/02 02:43:11;;;;;;;8.90;2.90;;;;;;;;;;5042637;28;20041;-69
2023/06/02 02:45:38;;;;;;;7.70;2.35;;;20.00;81.30;;;;;;5047770;28;20055;-68
2023/06/02 02:48:05;;;;;;;9.15;2.70;;;;;;;;;;5033906;28;20502;-69
2023/06/02 02:50:30;;;;;;;7.22;2.53;;;19.90;81.50;;;;;;5033527;28;20057;-62
2023/06/02 02:52:56;;;;;;;8.98;2.55;;;19.90;81.50;;;;;;5033523;28;20038;-69
2023/06/02 02:55:22;;;;;;;8.88;2.35;;;19.60;81.30;;;;;;5047344;28;20044;-68
2023/06/02 02:57:47;;;;;;;6.78;2.30;;;19.90;81.60;;;;;;5052234;28;20479;-67
2023/06/02 03:00:14;;;;;;;8.73;2.38;;;19.90;81.60;;;;;;5051770;28;20044;-70
2023/06/02 03:02:40;;;;;;;10.57;3.05;;;19.60;77.40;;;;;;5050842;28;20052;-66
2023/06/02 03:05:06;;;;;;;9.85;2.70;;;19.60;81.40;;;;;;5050075;28;20376;-64
2023/06/02 03:07:34;;;;;;;9.77;2.85;;;19.80;81.60;;;;;;5052335;28;20087;-64
2023/06/02 03:10:00;;;;;;;8.98;2.40;;;19.90;81.60;;;;;;5053343;28;20045;-70
2023/06/02 03:12:26;;;;;;;10.95;2.80;;;20.00;81.60;;;;;;5042839;28;20406;-61
2023/06/02 03:14:51;;;;;;;9.38;2.80;;;19.90;81.60;;;;;;5035274;28;20037;-69
2023/06/02 03:17:17;;;;;;;9.77;2.67;;;19.80;81.60;;;;;;5033245;28;20479;-69
2023/06/02 03:19:43;;;;;;;12.40;2.53;;;20.00;81.70;;;;;;5032891;28;20606;-66
2023/06/02 03:22:09;;;;;;;9.50;2.45;;;19.70;81.60;;;;;;5032866;28;20188;-66
2023/06/02 03:24:34;;;;;;;10.23;2.45;;;19.80;81.60;;;;;;5036416;28;20033;-60
2023/06/02 03:27:00;;;;;;;11.18;2.42;;;20.00;81.70;;;;;;5049355;28;20071;-65
2023/06/02 03:29:26;;;;;;;8.48;2.72;;;19.90;78.20;;;;;;5040784;28;20076;-65
2023/06/02 03:31:53;;;;;;;10.63;2.50;;;19.80;81.60;;;;;;5031377;28;20140;-69
2023/06/02 03:34:20;;;;;;;8.70;2.22;;;19.80;81.70;;;;;;5031899;28;20055;-69
2023/06/02 03:36:46;;;;;;;7.95;2.30;;;19.90;81.70;;;;;;5042604;28;20128;-68
2023/06/02 03:39:13;;;;;;;10.32;2.95;;;20.00;81.60;;;;;;5051977;28;20060;-69
2023/06/02 03:41:39;;;;;;;7.97;2.83;;;19.80;81.70;;;;;;5052842;28;20045;-69
2023/06/02 03:44:05;;;;;;;9.63;2.72;;;19.90;81.80;;;;;;5050915;28;20073;-64
2023/06/02 03:46:30;;;;;;;9.80;2.95;;;19.90;81.90;;;;;;5044351;28;20136;-68
2023/06/02 03:48:56;;;;;;;12.80;2.60;;;19.90;81.80;;;;;;5049707;28;20136;-68
2023/06/02 03:51:23;;;;;;;7.88;2.50;;;;;;;;;;5052025;28;20084;-69
2023/06/02 03:53:51;;;;;;;8.82;2.53;;;19.90;81.80;;;;;;5052370;28;20491;-68
2023/06/02 03:56:19;;;;;;;9.35;2.70;;;19.90;81.90;;;;;;5051163;28;20053;-67
2023/06/02 03:58:45;;;;;;;9.77;2.50;;;20.00;82.00;;;;;;5035120;28;20053;-61
2023/06/02 04:01:12;;;;;;;9.52;2.45;;;20.10;82.10;;;;;;5032738;28;20046;-70
2023/06/02 04:03:41;;;;;;;9.38;2.70;;;19.80;79.90;;;;;;5043508;28;20071;-66
2023/06/02 04:06:07;;;;;;;7.75;2.33;;;20.10;82.10;;;;;;5047587;28;20051;-70
2023/06/02 04:08:33;;;;;;;8.80;2.42;;;19.60;79.60;;;;;;5056768;28;20090;-70
2023/06/02 04:10:59;;;;;;;9.90;2.63;;;19.90;82.10;;;;;;5049116;28;20120;-70
2023/06/02 04:13:25;;;;;;;10.13;2.40;;;;;;;;;;5035969;28;20041;-67
2023/06/02 04:15:51;;;;;;;10.27;3.03;;;19.90;82.00;;;;;;5036370;28;20365;-72
2023/06/02 04:18:17;;;;;;;8.93;2.97;;;20.00;82.10;;;;;;5036602;28;20052;-67
2023/06/02 04:20:43;;;;;;;7.43;2.97;;;20.00;80.80;;;;;;5044723;28;20125;-71
2023/06/02 04:23:09;;;;;;;9.73;2.33;;;20.00;82.20;;;;;;5036595;28;20124;-72
2023/06/02 04:25:36;;;;;;;10.65;2.70;;;;;;;;;;5037214;28;20419;-68
2023/06/02 04:28:01;;;;;;;10.35;2.95;;;19.80;82.10;;;;;;5036481;28;20081;-66
2023/06/02 04:30:27;;;;;;;9.30;2.72;;;20.00;82.30;;;;;;5036058;28;20085;-70
2023/06/02 04:32:53;;;;;;;11.18;2.88;;;19.90;80.50;;;;;;5035887;28;20045;-61
2023/06/02 04:35:19;;;;;;;11.73;2.95;;;;;;;;;;5036959;28;20050;-68
2023/06/02 04:37:46;;;;;;;8.30;2.58;;;20.00;82.20;;;;;;5043020;28;20180;-68
2023/06/02 04:40:13;;;;;;;8.35;2.70;;;20.10;82.20;;;;;;5053737;28;20052;-69
2023/06/02 04:42:39;;;;;;;9.40;2.67;;;;;;;;;;5055668;28;20056;-65
2023/06/02 04:45:11;;;;;;;8.98;2.80;;;20.00;82.20;;;;;;5050388;28;20041;-67
2023/06/02 04:47:40;;;;;;;8.23;3.10;;;20.00;79.60;;;;;;5042253;28;20052;-64
2023/06/02 04:50:08;;;;;;;7.50;2.47;;;20.20;82.30;;;;;;5054377;28;20311;-64
2023/06/02 04:52:35;;;;;;;10.55;2.60;;;;;;;;;;5055635;28;20044;-70
2023/06/02 04:55:00;;;;;;;14.65;3.42;;;20.00;82.30;;;;;;5042887;28;20687;-61
2023/06/02 04:57:26;;;;;;;9.77;3.05;;;20.00;82.30;;;;;;5055823;28;20044;-65
2023/06/02 04:59:52;;;;;;;11.85;3.53;;;19.90;82.30;;;;;;5052289;28;20047;-69
2023/06/02 05:02:18;;;;;;;9.02;2.75;;;20.00;82.30;;;;;;5055877;28;20445;-62
2023/06/02 05:04:43;;;;;;;12.65;3.00;;;20.00;82.30;;;;;;5050170;28;20475;-61
2023/06/02 05:07:09;;;;;;;9.95;2.90;;;20.00;80.90;;;;;;5035010;28;20483;-68
2023/06/02 05:09:35;;;;;;;12.40;2.70;;;;;;;;;;5035212;28;20380;-68
2023/06/02 05:12:02;;;;;;;13.05;3.47;;;;;;;;;;5037912;28;20129;-63
2023/06/02 05:14:27;;;;;;;9.73;2.85;;;20.10;82.20;;;;;;5035636;28;20053;-63
2023/06/02 05:16:54;;;;;;;11.63;2.75;;;20.10;82.50;;;;;;5035566;28;20053;-59
2023/06/02 05:19:20;;;;;;;11.25;2.92;;;;;;;;;;5040455;28;20372;-65
2023/06/02 05:21:46;;;;;;;11.77;3.33;;;19.70;82.10;;;;;;5039903;28;20044;-66
2023/06/02 05:24:11;;;;;;;12.07;3.13;;;20.20;82.50;;;;;;5055368;28;20047;-63
2023/06/02 05:26:38;;;;;;;14.00;3.15;;;20.30;82.50;;;;;;5054621;28;20110;-67
2023/06/02 05:29:03;;;;;;;11.65;3.08;;;20.20;79.10;;;;;;5051404;28;20052;-71
2023/06/02 05:31:29;;;;;;;13.05;2.97;;;20.10;82.30;;;;;;5052285;28;20040;-64
2023/06/02 05:33:55;;;;;;;10.50;3.42;;;20.20;82.40;;;;;;5049146;28;20501;-62
2023/06/02 05:36:21;;;;;;;8.73;2.90;;;;;;;;;;5055045;28;20061;-61
2023/06/02 05:38:47;;;;;;;9.57;2.72;;;;;;;;;;5041524;28;20045;-68
2023/06/02 05:41:13;;;;;;;8.40;2.80;;;20.30;82.50;;;;;;5033887;28;20053;-68
2023/06/02 05:43:39;;;;;;;10.65;3.25;;;20.10;82.30;;;;;;5045751;28;20049;-73
2023/06/02 05:46:05;;;;;;;8.95;2.60;;;20.50;82.50;;;;;;5038613;28;20052;-63
2023/06/02 05:48:31;;;;;;;9.70;2.67;;;20.50;82.50;;;;;;5039743;28;20390;-79
2023/06/02 05:50:57;;;;;;;13.55;3.22;;;;;;;;;;5042893;28;20116;-72
2023/06/02 05:53:23;;;;;;;15.77;2.90;;;20.70;82.50;;;;;;5037761;28;20043;-74
2023/06/02 05:55:48;;;;;;;11.07;2.95;;;20.70;82.40;;;;;;5034506;28;20045;-61
2023/06/02 05:58:14;;;;;;;10.80;2.58;;;20.90;82.60;;;;;;5042191;28;20041;-73
2023/06/02 06:00:40;;;;;;;8.48;2.58;;;20.80;82.30;;;;;;5054189;28;20040;-74
2023/06/02 06:03:06;;;;;;;10.07;2.80;;;21.20;82.30;;;;;;5037905;28;20044;-67
2023/06/02 06:05:31;;;;;;;10.38;2.53;;;21.20;82.10;;;;;;5043177;28;20399;-60
2023/06/02 06:07:58;;;;;;;11.45;3.10;;;;;;;;;;5050623;28;20041;-62
2023/06/02 06:10:23;;;;;;;9.20;2.80;;;21.50;82.00;;;;;;5054142;28;20136;-70
2023/06/02 06:12:49;;;;;;;12.85;3.17;;;21.60;81.90;;;;;;5053380;28;20124;-65
2023/06/02 06:15:16;;;;;;;10.52;3.20;;;21.70;81.80;;;;;;5052532;28;20052;-60
2023/06/02 06:17:49;;;;;;;9.90;3.53;;;21.70;81.70;;;;;;5037509;28;20050;-63
2023/06/02 06:20:15;;;;;;;14.65;3.45;;;21.60;81.30;;;;;;5049338;28;20079;-73
2023/06/02 06:22:42;;;;;;;11.05;3.17;;;;;;;;;;5046783;28;20040;-61
2023/06/02 06:25:08;;;;;;;13.68;3.22;;;22.20;81.50;;;;;;5053537;28;20619;-61
2023/06/02 06:27:34;;;;;;;14.27;3.97;;;22.10;81.30;;;;;;5051161;28;20045;-60
2023/06/02 06:30:00;;;;;;;12.20;3.60;;;22.30;81.20;;;;;;5050645;28;20044;-64
2023/06/02 06:32:26;;;;;;;13.00;3.45;;;22.10;81.10;;;;;;5053694;28;20060;-60
2023/06/02 06:34:52;;;;;;;11.05;3.35;;;22.40;81.10;;;;;;5046398;28;20128;-61
2023/06/02 06:37:17;;;;;;;16.98;3.65;;;22.30;81.00;;;;;;5042116;28;20084;-60
2023/06/02 06:39:44;;;;;;;16.70;3.83;;;;;;;;;;5036029;28;20582;-63
2023/06/02 06:42:10;;;;;;;17.48;4.22;;;;;;;;;;5048597;28;20036;-63
2023/06/02 06:44:37;;;;;;;13.13;3.50;;;22.60;80.70;;;;;;5053375;28;20045;-61
2023/06/02 06:47:03;;;;;;;15.05;4.00;;;22.70;80.60;;;;;;5053690;28;20048;-73
2023/06/02 06:49:28;;;;;;;15.20;4.05;;;22.80;80.60;;;;;;5050994;28;20386;-68
2023/06/02 06:51:54;;;;;;;20.15;4.20;;;;;;;;;;5052275;28;20060;-70
2023/06/02 06:54:20;;;;;;;13.80;3.47;;;22.80;80.40;;;;;;5051128;28;20045;-69
2023/06/02 06:56:46;;;;;;;13.77;3.75;;;23.00;80.30;;;;;;5053167;28;20049;-70
2023/06/02 06:59:12;;;;;;;12.70;3.20;;;22.80;80.10;;;;;;5047502;28;20049;-67
2023/06/02 07:01:38;;;;;;;15.27;4.00;;;23.20;80.20;;;;;;5049987;28;20094;-65
2023/06/02 07:04:04;;;;;;;11.30;3.42;;;23.30;80.10;;;;;;5039387;28;20053;-71
2023/06/02 07:06:31;;;;;;;15.23;4.05;;;23.20;80.00;;;;;;5032284;28;20046;-60
2023/06/02 07:08:57;;;;;;;11.38;3.30;;;23.20;79.90;;;;;;5032837;28;20081;-71
2023/06/02 07:11:22;;;;;;;13.27;3.45;;;23.30;77.20;;;;;;5047445;28;20069;-66
2023/06/02 07:13:48;;;;;;;14.45;3.80;;;23.40;79.80;;;;;;5051400;28;20041;-67
2023/06/02 07:16:14;;;;;;;10.93;3.35;;;23.50;79.80;;;;;;5048717;28;20509;-74
2023/06/02 07:18:40;;;;;;;12.27;3.47;;;23.80;79.80;;;;;;5032727;28;20072;-62
2023/06/02 07:21:06;;;;;;;14.43;3.88;;;23.40;75.80;;;;;;5037869;28;20137;-62
2023/06/02 07:23:31;;;;;;;13.23;3.97;;;23.60;79.60;;;;;;5050962;28;20515;-64
2023/06/02 07:25:57;;;;;;;10.73;3.60;;;23.80;77.00;;;;;;5052055;28;20517;-63
2023/06/02 07:28:23;;;;;;;13.60;3.45;;;23.60;79.60;;;;;;5050415;28;20120;-60
2023/06/02 07:30:51;;;;;;;10.82;3.35;;;23.60;77.50;;;;;;5048571;28;20049;-65
2023/06/02 07:33:18;;;;;;;14.13;3.60;;;23.60;76.20;;;;;;5043448;28;20064;-65
2023/06/02 07:35:44;;;;;;;8.93;3.05;;;23.80;79.40;;;;;;5048276;28;20044;-74
2023/06/02 07:38:10;;;;;;;14.68;3.60;;;23.70;79.30;;;;;;5050273;28;20120;-61
2023/06/02 07:40:35;;;;;;;12.25;3.67;;;23.70;79.10;;;;;;5048056;28;20179;-71
2023/06/02 07:43:01;;;;;;;11.52;3.35;;;23.70;79.00;;;;;;5032259;28;20052;-68
2023/06/02 07:45:27;;;;;;;10.55;3.40;;;23.60;78.90;;;;;;5049453;28;20045;-65
2023/06/02 07:47:53;;;;;;;14.18;3.53;;;23.70;78.90;;;;;;5044978;28;20060;-60
2023/06/02 07:50:19;;;;;;;9.93;3.17;;;23.70;78.90;;;;;;5032636;28;20071;-62
2023/06/02 07:52:45;;;;;;;12.30;3.60;;;23.80;78.90;;;;;;5034670;28;20493;-65
2023/06/02 07:55:11;;;;;;;14.20;3.53;;;24.00;79.20;;;;;;5038545;28;20441;-69
2023/06/02 07:57:37;;;;;;;14.15;3.60;;;23.90;75.90;;;;;;5052145;28;20487;-66
2023/06/02 08:00:16;;;;;;;12.48;2.83;;;24.10;78.70;;;;;;5043149;28;20052;-61
2023/06/02 08:02:43;;;;;;;12.10;3.03;;;24.10;78.60;;;;;;5045639;28;20041;-65
2023/06/02 08:05:09;;;;;;;8.95;3.15;;;24.00;78.50;;;;;;5044347;28;20593;-62
2023/06/02 08:07:35;;;;;;;11.93;2.80;;;24.40;78.60;;;;;;5031877;28;20055;-61
2023/06/02 08:10:01;;;;;;;11.05;2.90;;;23.90;78.20;;;;;;5049315;28;20132;-64
2023/06/02 08:12:28;;;;;;;10.07;3.05;;;24.20;78.40;;;;;;5048420;28;20041;-64
2023/06/02 08:14:53;;;;;;;13.38;3.30;;;24.20;78.20;;;;;;5050052;28;20102;-63
2023/06/02 08:17:19;;;;;;;15.93;3.03;;;24.00;78.10;;;;;;5049933;28;20443;-63
2023/06/02 08:19:45;;;;;;;9.07;2.58;;;23.80;77.90;;;;;;5032170;28;20092;-64
2023/06/02 08:22:11;;;;;;;10.07;2.65;;;24.10;78.00;;;;;;5035327;28;20028;-60
2023/06/02 08:24:37;;;;;;;11.00;2.80;;;24.20;77.90;;;;;;5040966;28;20115;-61
2023/06/02 08:27:04;;;;;;;10.90;2.95;;;24.20;75.30;;;;;;5037652;28;20131;-63
2023/06/02 08:29:31;;;;;;;8.07;2.67;;;24.30;75.10;;;;;;5045319;28;20059;-60
2023/06/02 08:31:57;;;;;;;8.65;2.67;;;24.40;75.10;;;;;;5051522;28;20052;-61
2023/06/02 08:34:24;;;;;;;7.22;2.70;;;24.40;77.30;;;;;;5049392;28;20045;-62
2023/06/02 08:36:56;;;;;;;7.57;2.17;;;24.20;77.10;;;;;;5031620;28;20049;-61
2023/06/02 08:39:22;;;;;;;10.13;2.80;;;24.30;77.20;;;;;;5040767;28;20041;-62
2023/06/02 08:41:48;;;;;;;9.10;2.40;;;24.20;77.10;;;;;;5044405;28;20080;-61
2023/06/02 08:44:14;;;;;;;8.88;2.35;;;24.20;74.40;;;;;;5033332;28;20227;-75
2023/06/02 08:46:40;;;;;;;6.05;2.20;;;24.20;76.90;;;;;;5047940;28;20107;-60
2023/06/02 08:49:06;;;;;;;8.48;2.58;;;24.10;73.90;;;;;;5047959;28;20449;-63
2023/06/02 08:51:36;;;;;;;7.45;2.30;;;24.20;73.90;;;;;;5044289;28;20036;-60
2023/06/02 08:54:02;;;;;;;7.82;2.20;;;24.40;74.20;;;;;;5055116;28;20075;-62
2023/06/02 08:56:28;;;;;;;6.13;1.92;;;24.10;73.80;;;;;;5054025;28;20041;-64
2023/06/02 08:58:54;;;;;;;6.72;1.80;;;24.30;76.50;;;;;;5033386;28;20063;-64
2023/06/02 09:01:20;;;;;;;5.38;1.90;;;24.20;73.60;;;;;;5051626;28;20040;-64
2023/06/02 09:03:47;;;;;;;21.25;3.15;;;24.30;76.50;;;;;;5045091;28;20076;-66
2023/06/02 09:06:26;;;;;;;14.93;3.33;;;24.10;73.90;;;;;;5036807;28;20107;-60
2023/06/02 09:08:57;;;;;;;21.35;3.28;;;24.40;76.60;;;;;;5047755;28;20376;-61
2023/06/02 09:11:23;;;;;;;17.73;3.92;;;24.20;76.40;;;;;;5053914;28;20052;-61
2023/06/02 09:13:49;;;;;;;9.40;3.03;;;24.20;76.70;;;;;;5054843;28;20041;-66
2023/06/02 09:16:15;;;;;;;8.82;2.70;;;24.60;73.90;;;;;;5052772;28;20151;-62
2023/06/02 09:18:54;;;;;;;14.18;2.58;;;24.20;76.20;;;;;;5045219;28;20112;-71
2023/06/02 09:21:28;;;;;;;9.13;2.00;;;24.10;76.30;;;;;;5033966;28;20644;-63
2023/06/02 09:23:57;;;;;;;8.25;2.25;;;24.30;72.30;;;;;;5034812;28;20049;-63
2023/06/02 09:26:25;;;;;;;5.15;1.70;;;24.10;73.60;;;;;;5043777;28;20521;-69
2023/06/02 09:29:04;;;;;;;10.18;2.05;;;24.20;75.90;;;;;;5047426;28;20053;-63
2023/06/02 09:31:52;;;;;;;6.05;2.03;;;24.40;75.90;;;;;;5034854;28;20049;-66
2023/06/02 09:34:21;;;;;;;5.40;1.73;;;24.10;73.10;;;;;;5034924;28;20055;-71
2023/06/02 09:36:48;;;;;;;6.57;2.00;;;24.20;75.00;;;;;;5034483;28;20054;-71
2023/06/02 09:39:14;;;;;;;21.60;3.08;;;24.20;74.50;;;;;;5040446;28;20047;-62
2023/06/02 09:41:40;;;;;;;12.13;2.20;;;;;;;;;;5045031;28;20120;-69
2023/06/02 09:44:16;;;;;;;8.55;2.40;;;24.10;75.00;;;;;;5034213;28;20050;-67
2023/06/02 09:46:43;;;;;;;8.43;2.47;;;24.10;75.10;;;;;;5035064;28;20045;-60
2023/06/02 09:49:10;;;;;;;16.23;2.95;;;23.90;72.50;;;;;;5039103;28;20044;-61
2023/06/02 09:51:38;;;;;;;12.57;2.92;;;24.10;72.50;;;;;;5053973;28;20045;-63
2023/06/02 09:54:08;;;;;;;15.57;3.85;;;24.10;71.50;;;;;;5054414;28;20051;-60
2023/06/02 09:56:37;;;;;;;12.55;3.00;;;23.90;75.30;;;;;;5054243;28;20052;-67
2023/06/02 09:59:05;;;;;;;10.20;3.13;;;23.60;75.30;;;;;;5051808;28;20094;-70
2023/06/02 10:01:32;;;;;;;10.63;3.05;;;23.90;75.60;;;;;;5037552;28;20051;-61
2023/06/02 10:03:58;;;;;;;6.88;2.72;;;23.80;75.70;;;;;;5031771;28;20049;-70
2023/06/02 10:06:35;;;;;;;19.90;2.75;;;23.80;75.70;;;;;;5034446;28;20049;-69
2023/06/02 10:09:00;;;;;;;9.93;2.25;;;24.00;75.70;;;;;;5032979;28;20448;-62
2023/06/02 10:11:47;;;;;;;8.43;2.30;;;23.70;75.50;;;;;;5034600;28;20127;-64
2023/06/02 10:14:22;;;;;;;6.90;2.28;;;23.80;71.70;;;;;;5036562;28;20095;-62
2023/06/02 10:17:12;;;;;;;6.88;2.08;;;24.00;71.80;;;;;;5046526;28;20052;-65
2023/06/02 10:19:42;;;;;;;6.03;1.90;;;24.00;76.20;;;;;;5039516;28;20056;-75
2023/06/02 10:22:07;;;;;;;4.88;1.80;;;23.80;75.90;;;;;;5046345;28;20399;-60
2023/06/02 10:24:59;;;;;;;5.45;1.60;;;23.90;75.70;;;;;;5052520;28;20041;-63
2023/06/02 10:27:30;;;;;;;11.07;2.35;;;23.60;75.40;;;;;;5047370;28;20099;-64
2023/06/02 10:29:56;;;;;;;6.78;1.70;;;23.60;75.40;;;;;;5033006;28;20054;-63
2023/06/02 10:32:27;;;;;;;6.63;1.77;;;23.60;75.70;;;;;;5036490;28;20045;-72
2023/06/02 10:34:56;;;;;;;8.60;2.05;;;23.70;75.30;;;;;;5051147;28;20486;-66
2023/06/02 10:37:22;;;;;;;10.00;2.30;;;23.70;72.50;;;;;;5053660;28;20075;-72
2023/06/02 10:39:52;;;;;;;12.63;2.03;;;23.50;75.50;;;;;;5041721;28;20041;-72
2023/06/02 10:42:20;;;;;;;9.48;2.70;;;23.60;75.80;;;;;;5032964;28;20045;-70
2023/06/02 10:44:47;;;;;;;6.95;2.00;;;23.50;75.60;;;;;;5032210;28;20103;-70
2023/06/02 10:47:19;;;;;;;10.43;2.50;;;23.60;75.80;;;;;;5050123;28;20402;-71
2023/06/02 10:49:55;;;;;;;7.05;2.30;;;23.80;73.40;;;;;;5051639;28;20075;-68
2023/06/02 10:52:24;;;;;;;11.02;2.08;;;23.50;76.30;;;;;;5038115;28;20039;-62
2023/06/02 10:55:08;;;;;;;6.43;1.75;;;23.80;76.60;;;;;;5042559;28;20406;-73
2023/06/02 10:57:49;;;;;;;8.00;2.60;;;23.90;77.40;;;;;;5033149;28;20071;-62
2023/06/02 11:00:35;;;;;;;5.85;2.08;;;23.60;74.00;;;;;;5034729;28;20121;-70
2023/06/02 11:03:24;;;;;;;6.65;2.13;;;23.70;76.80;;;;;;5033487;28;20041;-71
2023/06/02 11:05:50;;;;;;;6.45;1.98;;;23.70;77.30;;;;;;5031856;28;20072;-73
2023/06/02 11:08:18;;;;;;;7.85;1.95;;;23.60;76.70;;;;;;5040728;28;20037;-64
2023/06/02 11:10:45;;;;;;;6.20;2.03;;;23.80;76.70;;;;;;5033037;28;20049;-60
2023/06/02 11:13:12;;;;;;;4.45;1.88;;;23.60;76.90;;;;;;5035159;28;20069;-63
2023/06/02 11:15:38;;;;;;;5.93;2.03;;;23.60;77.00;;;;;;5034018;28;20103;-74
2023/06/02 11:18:22;;;;;;;4.25;1.88;;;23.70;77.20;;;;;;5046825;28;20442;-67
2023/06/02 11:20:52;;;;;;;6.95;1.92;;;23.60;77.00;;;;;;5032526;28;20052;-68
2023/06/02 11:23:18;;;;;;;7.68;2.15;;;23.70;77.30;;;;;;5031965;28;20045;-67
2023/06/02 11:25:44;;;;;;;8.63;2.25;;;23.60;77.30;;;;;;5038971;28;20483;-60
2023/06/02 11:28:21;;;;;;;6.05;2.47;;;23.70;74.40;;;;;;5031277;28;20050;-60
2023/06/02 11:30:49;;;;;;;6.47;1.90;;;23.70;77.40;;;;;;5047598;28;20041;-65
2023/06/02 11:33:15;;;;;;;10.38;2.25;;;23.90;77.70;;;;;;5040068;28;20037;-64
2023/06/02 11:35:41;;;;;;;6.60;2.17;;;24.00;77.70;;;;;;5052118;28;20056;-72
2023/06/02 11:38:08;;;;;;;4.35;1.70;;;24.00;77.60;;;;;;5046079;28;20057;-71
2023/06/02 11:40:35;;;;;;;8.00;2.28;;;23.90;77.30;;;;;;5037687;28;20052;-73
2023/06/02 11:43:01;;;;;;;6.15;1.92;;;23.80;77.40;;;;;;5042226;28;20120;-61
2023/06/02 11:45:27;;;;;;;4.70;2.00;;;23.60;76.60;;;;;;5041542;28;20123;-76
2023/06/02 11:47:59;;;;;;;5.07;1.70;;;23.70;77.00;;;;;;5039660;28;20044;-61
2023/06/02 11:50:25;;;;;;;18.70;3.13;;;23.60;77.00;;;;;;5032420;28;20511;-66
2023/06/02 11:52:51;;;;;;;7.10;2.20;;;23.70;77.30;;;;;;5046534;28;20051;-60
2023/06/02 11:55:17;;;;;;;7.70;1.98;;;23.90;77.60;;;;;;5036761;28;20044;-66
2023/06/02 11:57:43;;;;;;;14.23;5.75;;;23.80;77.40;;;;;;5040774;28;20151;-68
2023/06/02 12:00:15;;;;;;;18.70;6.78;;;23.70;77.10;;;;;;5035271;28;20419;-61
2023/06/02 12:02:57;;;;;;;23.95;7.80;;;23.70;77.50;;;;;;5037717;28;20394;-71
2023/06/02 12:05:35;;;;;;;35.40;9.25;;;23.60;75.70;;;;;;5042838;28;20395;-65
2023/06/02 12:08:08;;;;;;;26.35;7.28;;;24.00;77.90;;;;;;5051949;28;20052;-65
2023/06/02 12:10:34;;;;;;;15.80;6.72;;;23.80;75.10;;;;;;5048963;28;20056;-67
2023/06/02 12:13:00;;;;;;;22.17;7.85;;;24.00;78.10;;;;;;5034387;28;20045;-64
2023/06/02 12:15:32;;;;;;;25.98;8.15;;;23.70;77.60;;;;;;5040299;28;20049;-63
2023/06/02 12:18:06;;;;;;;23.10;6.88;;;24.00;77.50;;;;;;5032544;28;20049;-66
2023/06/02 12:20:41;;;;;;;31.02;6.07;;;24.10;77.30;;;;;;5047221;28;20067;-69
2023/06/02 12:23:08;;;;;;;22.65;5.43;;;24.00;76.50;;;;;;5036682;28;20073;-63
2023/06/02 12:25:34;;;;;;;14.77;4.88;;;24.10;76.60;;;;;;5034542;28;20050;-64
2023/06/02 12:28:11;;;;;;;11.07;4.47;;;23.90;76.40;;;;;;5036574;28;20124;-65
2023/06/02 12:30:37;;;;;;;13.70;4.55;;;23.70;76.40;;;;;;5037627;28;20079;-69
2023/06/02 12:33:09;;;;;;;13.15;4.63;;;23.90;76.60;;;;;;5045943;28;20038;-70
2023/06/02 12:35:36;;;;;;;17.38;4.57;;;24.10;76.80;;;;;;5046772;28;20049;-63
2023/06/02 12:38:03;;;;;;;22.10;4.85;;;24.10;74.10;;;;;;5043234;28;20139;-62
2023/06/02 12:40:30;;;;;;;15.63;5.38;;;23.80;76.40;;;;;;5046985;28;20418;-71
2023/06/02 12:42:56;;;;;;;19.77;8.55;;;24.00;76.80;;;;;;5049732;28;20060;-68
2023/06/02 12:45:21;;;;;;;17.95;8.15;;;24.00;76.90;;;;;;5032499;28;20052;-62
2023/06/02 12:47:47;;;;;;;20.35;7.88;;;24.10;77.00;;;;;;5036489;28;20069;-70
2023/06/02 12:50:13;;;;;;;16.75;6.65;;;24.00;76.80;;;;;;5043350;28;20395;-65
2023/06/02 12:52:40;;;;;;;18.58;6.47;;;24.20;77.10;;;;;;5048159;28;20049;-70